100LL.CA
Aviation Fuel Pricing for Canadians
Please upgrade your browser - Tested with IE9, FireFox, Chrome, Safari

Fuel Airports Other Help
Prices Economy Info List METAR/TAF Kneeboard Help

Reference Airport: SUDBURY, ON
N 46 37 32  W 080 47 52
Provinces to show:

CYSB SUDBURY, ON
WEATHER
METARCYSB 230400Z 22005KT 15SM OVC085 00/M04 A2948 RMK AC8 SLP000
TAFTAF CYSB 230140Z 2302/2314 22007KT P6SM SCT120 FM230300 23007KT P6SM BKN050 OVC080 TEMPO 2303/2310 4SM -SHSN BKN015 OVC050 PROB30 2303/2310 2SM -SHSN FM231000 23010G20KT P6SM OVC030 TEMPO 2310/2312 2SM -SHSN OVC008 PROB30 2310/2312 1/2SM SHSN VV006 FM231200 35012G22KT 3SM -SHSN OVC020 TEMPO 2312/2314 P6SM NSW OVC030 RMK NXT FCST BY 230800Z
OTHER SITES

FlightAware

FltPlan

Google Maps

SkyVector
FUEL
FBO 100LL
member
100LL
public
JETA MOGAS
Northern Aviation Services (2022-03-02)2.4001.890
  Note: Landing Fees! $25/aircraft under 2000kg. https://flysudbury.ca/aviation.php#fees=
Executive Aviation (2022-05-06)2.9612.995
  Note: Landing Fees! $25/aircraft under 2000kg. https://flysudbury.ca/aviation.php#fees=
Canada Flight Supplement - CYSB
(opens in new tab/window)


Please Send Updates!

Desktop Version ]  [ Mobile Version ]  [ Disclaimer ]